createdAt,value
2022-11-19T00:01:15.199Z,5.00
2022-11-19T00:03:43.108Z,5.10
2022-11-19T00:06:16.255Z,5.10
2022-11-19T00:08:43.362Z,5.30
2022-11-19T00:11:13.651Z,5.20
2022-11-19T00:13:42.353Z,5.30
2022-11-19T00:16:12.115Z,5.40
2022-11-19T00:18:39.526Z,5.50
2022-11-19T00:21:11.914Z,5.70
2022-11-19T00:23:39.775Z,5.40
2022-11-19T00:26:11.929Z,5.50
2022-11-19T00:28:39.364Z,5.30
2022-11-19T00:31:09.422Z,5.20
2022-11-19T00:33:37.180Z,5.20
2022-11-19T00:36:05.523Z,5.10
2022-11-19T00:38:32.984Z,5.00
2022-11-19T00:40:59.900Z,4.90
2022-11-19T00:43:45.447Z,4.70
2022-11-19T00:46:13.586Z,4.80
2022-11-19T00:48:40.496Z,4.60
2022-11-19T00:51:08.221Z,4.80
2022-11-19T00:53:35.739Z,4.80
2022-11-19T00:56:04.621Z,4.50
2022-11-19T00:58:31.571Z,4.50
2022-11-19T01:00:58.440Z,4.60
2022-11-19T01:03:25.626Z,4.80
2022-11-19T01:05:52.722Z,4.60
2022-11-19T01:08:19.906Z,4.60
2022-11-19T01:10:46.961Z,4.40
2022-11-19T01:13:32.860Z,4.60
2022-11-19T01:15:59.896Z,4.50
2022-11-19T01:18:28.055Z,4.80
2022-11-19T01:20:56.105Z,4.60
2022-11-19T01:23:23.592Z,4.60
2022-11-19T01:25:50.492Z,4.60
2022-11-19T01:28:17.369Z,4.70
2022-11-19T01:30:44.504Z,4.90
2022-11-19T01:33:12.426Z,4.90
2022-11-19T01:35:39.200Z,4.80
2022-11-19T01:38:07.063Z,4.60
2022-11-19T01:40:41.010Z,4.50
2022-11-19T01:43:11.551Z,4.50
2022-11-19T01:45:52.857Z,4.30
2022-11-19T01:48:33.043Z,4.30
2022-11-19T01:51:05.151Z,4.60
2022-11-19T01:53:35.320Z,4.40
2022-11-19T01:56:04.480Z,4.50
2022-11-19T01:58:44.069Z,4.40
2022-11-19T02:01:11.362Z,4.50
2022-11-19T02:03:39.926Z,4.50
2022-11-19T02:06:07.857Z,4.60
2022-11-19T02:08:45.030Z,4.60
2022-11-19T02:11:23.843Z,4.70
2022-11-19T02:14:06.022Z,4.60
2022-11-19T02:16:58.924Z,4.50
2022-11-19T02:19:40.638Z,4.70
2022-11-19T02:22:26.216Z,4.60
2022-11-19T02:25:20.237Z,4.60
2022-11-19T02:28:12.952Z,4.50
2022-11-19T02:30:43.763Z,4.40
2022-11-19T02:33:22.876Z,4.40
2022-11-19T02:36:01.898Z,4.50
2022-11-19T02:38:44.557Z,4.50
2022-11-19T02:41:35.564Z,4.40
2022-11-19T02:44:43.354Z,4.40
2022-11-19T02:47:14.695Z,4.40
2022-11-19T02:49:45.065Z,4.30
2022-11-19T02:52:17.081Z,4.20
2022-11-19T02:54:43.853Z,4.20
2022-11-19T02:57:12.285Z,4.50
2022-11-19T03:00:09.731Z,4.40
2022-11-19T03:03:33.183Z,4.30
2022-11-19T03:06:05.852Z,4.20
2022-11-19T03:08:32.938Z,4.10
2022-11-19T03:11:26.534Z,4.10
2022-11-19T03:14:25.525Z,4.10
2022-11-19T03:16:58.686Z,4.20
2022-11-19T03:19:40.899Z,4.40
2022-11-19T03:22:22.825Z,4.30
2022-11-19T03:25:00.536Z,4.30
2022-11-19T03:27:37.955Z,4.10
2022-11-19T03:30:05.768Z,4.00
2022-11-19T03:33:15.662Z,3.90
2022-11-19T03:35:47.991Z,3.90
2022-11-19T03:38:26.670Z,3.90
2022-11-19T03:40:55.399Z,4.10
2022-11-19T03:43:25.990Z,4.20
2022-11-19T03:45:56.124Z,4.00
2022-11-19T03:48:24.128Z,3.90
2022-11-19T03:50:58.985Z,4.00
2022-11-19T03:53:27.839Z,4.00
2022-11-19T03:56:04.289Z,4.10
2022-11-19T03:58:40.810Z,4.00
2022-11-19T04:01:08.480Z,3.80
2022-11-19T04:03:35.341Z,3.80
2022-11-19T04:06:02.878Z,3.80
2022-11-19T04:08:29.717Z,3.70
2022-11-19T04:13:25.189Z,3.80
2022-11-19T04:15:52.129Z,4.00
2022-11-19T04:18:18.934Z,3.90
2022-11-19T04:20:46.062Z,3.90
2022-11-19T04:23:12.932Z,3.90
2022-11-19T04:25:41.408Z,3.90
2022-11-19T04:28:08.261Z,3.80
2022-11-19T04:30:35.058Z,3.80
2022-11-19T04:33:01.810Z,3.90
2022-11-19T04:35:28.660Z,4.00
2022-11-19T04:37:55.396Z,4.00
2022-11-19T04:40:22.218Z,4.00
2022-11-19T04:42:48.984Z,3.80
2022-11-19T04:45:15.795Z,3.80
2022-11-19T04:47:42.618Z,3.80
2022-11-19T04:50:09.733Z,3.90
2022-11-19T04:52:40.879Z,3.90
2022-11-19T04:55:08.854Z,3.80
2022-11-19T04:57:35.628Z,3.90
2022-11-19T05:00:02.561Z,3.80
2022-11-19T05:02:29.388Z,3.80
2022-11-19T05:04:56.202Z,3.70
2022-11-19T05:07:23.157Z,3.70
2022-11-19T05:09:49.993Z,3.50
2022-11-19T05:12:16.782Z,3.50
2022-11-19T05:14:43.605Z,3.60
2022-11-19T05:17:10.423Z,3.40
2022-11-19T05:19:37.369Z,3.20
2022-11-19T05:22:04.238Z,3.30
2022-11-19T05:24:31.122Z,3.40
2022-11-19T05:26:57.938Z,3.30
2022-11-19T05:29:24.745Z,3.30
2022-11-19T05:31:51.648Z,3.30
2022-11-19T05:34:18.440Z,3.40
2022-11-19T05:36:45.400Z,3.40
2022-11-19T05:39:13.430Z,3.40
2022-11-19T05:41:42.018Z,3.20
2022-11-19T05:44:08.947Z,3.40
2022-11-19T05:46:35.733Z,3.40
2022-11-19T05:49:02.606Z,3.50
2022-11-19T05:51:29.380Z,3.30
2022-11-19T05:53:56.302Z,3.40
2022-11-19T05:56:23.168Z,3.20
2022-11-19T05:58:49.895Z,4.20
2022-11-19T06:01:23.913Z,3.20
2022-11-19T06:03:50.714Z,3.20
2022-11-19T06:06:17.550Z,3.20
2022-11-19T06:08:44.357Z,3.20
2022-11-19T06:11:31.197Z,3.20
2022-11-19T06:13:58.037Z,3.00
2022-11-19T06:16:25.144Z,3.30
2022-11-19T06:18:51.984Z,3.20
2022-11-19T06:21:18.837Z,3.30
2022-11-19T06:23:45.692Z,3.20
2022-11-19T06:26:21.583Z,3.10
2022-11-19T06:28:48.451Z,3.00
2022-11-19T06:31:15.306Z,3.00
2022-11-19T06:33:42.122Z,3.10
2022-11-19T06:36:09.294Z,3.20
2022-11-19T06:38:36.177Z,3.20
2022-11-19T06:41:03.121Z,3.20
2022-11-19T06:43:29.944Z,3.20
2022-11-19T06:45:56.920Z,3.30
2022-11-19T06:48:23.910Z,3.20
2022-11-19T06:50:50.929Z,3.20
2022-11-19T06:53:17.796Z,3.20
2022-11-19T06:55:44.599Z,3.00
2022-11-19T06:58:11.504Z,2.90
2022-11-19T07:00:38.306Z,2.90
2022-11-19T07:03:05.135Z,2.70
2022-11-19T07:05:32.183Z,2.80
2022-11-19T07:08:03.022Z,2.80
2022-11-19T07:10:31.722Z,2.90
2022-11-19T07:12:58.530Z,3.10
2022-11-19T07:15:25.611Z,3.20
2022-11-19T07:17:52.883Z,3.20
2022-11-19T07:20:19.732Z,3.20
2022-11-19T07:22:46.976Z,3.20
2022-11-19T07:25:13.854Z,3.40
2022-11-19T07:27:43.383Z,3.10
2022-11-19T07:30:10.901Z,3.20
2022-11-19T07:32:37.753Z,3.20
2022-11-19T07:35:05.062Z,3.70
2022-11-19T07:37:31.867Z,3.30
2022-11-19T07:39:58.767Z,3.30
2022-11-19T07:42:44.483Z,3.30
2022-11-19T07:45:11.298Z,3.60
2022-11-19T07:47:38.116Z,3.40
2022-11-19T07:50:05.567Z,3.40
2022-11-19T07:52:32.490Z,2.80
2022-11-19T07:54:59.387Z,2.80
2022-11-19T07:57:30.266Z,2.70
2022-11-19T07:59:58.004Z,2.70
2022-11-19T08:02:24.953Z,2.80
2022-11-19T08:04:52.901Z,2.30
2022-11-19T08:07:19.817Z,2.40
2022-11-19T08:09:46.636Z,2.50
2022-11-19T08:12:13.654Z,2.20
2022-11-19T08:14:40.410Z,2.30
2022-11-19T08:17:26.270Z,2.70
2022-11-19T08:19:53.057Z,2.70
2022-11-19T08:22:19.854Z,2.70
2022-11-19T08:24:46.680Z,2.60
2022-11-19T08:27:13.498Z,2.80
2022-11-19T08:29:40.299Z,2.90
2022-11-19T08:32:07.163Z,2.90
2022-11-19T08:34:34.346Z,2.70
2022-11-19T08:37:01.431Z,2.60
2022-11-19T08:39:28.338Z,2.70
2022-11-19T08:42:13.764Z,2.60
2022-11-19T08:44:40.585Z,2.70
2022-11-19T08:47:07.462Z,2.70
2022-11-19T08:49:34.273Z,2.60
2022-11-19T08:52:01.105Z,2.60
2022-11-19T08:54:27.942Z,2.80
2022-11-19T08:56:54.770Z,2.70
2022-11-19T08:59:22.043Z,2.70
2022-11-19T09:01:50.306Z,2.70
2022-11-19T09:04:17.886Z,2.80
2022-11-19T09:06:45.132Z,2.70
2022-11-19T09:09:11.960Z,2.80
2022-11-19T09:11:42.664Z,2.70
2022-11-19T09:14:10.352Z,3.10
2022-11-19T09:16:37.237Z,2.70
2022-11-19T09:19:04.196Z,3.10
2022-11-19T09:21:31.070Z,2.10
2022-11-19T09:23:57.929Z,2.00
2022-11-19T09:26:24.701Z,2.10
2022-11-19T09:28:51.549Z,2.00
2022-11-19T09:31:19.854Z,2.10
2022-11-19T09:33:52.399Z,2.30
2022-11-19T09:36:20.119Z,2.60
2022-11-19T09:38:48.144Z,2.60
2022-11-19T09:41:17.980Z,2.50
2022-11-19T09:44:03.027Z,2.60
2022-11-19T09:46:55.202Z,2.70
2022-11-19T09:49:30.081Z,2.80
2022-11-19T09:52:05.520Z,2.80
2022-11-19T09:54:33.090Z,2.80
2022-11-19T09:57:05.929Z,2.60
2022-11-19T09:59:40.227Z,2.70
2022-11-19T10:02:22.003Z,2.80
2022-11-19T10:04:51.204Z,2.80
2022-11-19T10:07:38.371Z,2.80
2022-11-19T10:10:36.607Z,3.20
2022-11-19T10:17:21.977Z,3.30
2022-11-19T10:20:07.022Z,3.40
2022-11-19T10:22:43.206Z,3.30
2022-11-19T10:25:19.535Z,3.40
2022-11-19T10:27:54.969Z,3.60
2022-11-19T10:30:24.854Z,4.00
2022-11-19T10:33:12.178Z,4.10
2022-11-19T10:35:45.422Z,4.30
2022-11-19T10:38:21.578Z,5.00
2022-11-19T10:41:00.457Z,5.80
2022-11-19T10:43:34.594Z,6.50
2022-11-19T10:46:04.460Z,7.00
2022-11-19T10:48:41.541Z,7.40
2022-11-19T10:51:24.201Z,7.60
2022-11-19T10:53:55.713Z,7.70
2022-11-19T10:56:26.674Z,8.00
2022-11-19T10:58:57.446Z,8.20
2022-11-19T11:01:35.210Z,8.40
2022-11-19T11:04:22.044Z,8.70
2022-11-19T11:07:03.336Z,9.00
2022-11-19T11:09:40.403Z,9.10
2022-11-19T11:12:38.025Z,9.10
2022-11-19T11:15:26.502Z,9.10
2022-11-19T11:18:05.375Z,9.30
2022-11-19T11:20:32.875Z,9.40
2022-11-19T11:23:27.565Z,9.50
2022-11-19T11:26:08.458Z,9.50
2022-11-19T11:28:36.140Z,9.60
2022-11-19T11:31:06.902Z,9.90
2022-11-19T11:33:38.578Z,10.30
2022-11-19T11:36:12.790Z,10.50
2022-11-19T11:38:52.178Z,10.50
2022-11-19T11:44:14.824Z,10.60
2022-11-19T11:46:50.022Z,10.80
2022-11-19T11:49:27.697Z,11.00
2022-11-19T11:52:13.363Z,11.20
2022-11-19T11:55:03.414Z,11.40
2022-11-19T11:57:33.246Z,11.40
2022-11-19T12:00:01.349Z,11.10
2022-11-19T12:02:33.712Z,11.30
2022-11-19T12:05:08.046Z,11.30
2022-11-19T12:07:52.905Z,11.30
2022-11-19T12:10:44.669Z,11.70
2022-11-19T12:13:14.217Z,11.70
2022-11-19T12:15:52.494Z,11.80
2022-11-19T12:18:31.696Z,12.10
2022-11-19T12:21:11.447Z,12.40
2022-11-19T12:23:44.936Z,12.90
2022-11-19T12:26:20.638Z,13.10
2022-11-19T12:29:30.683Z,13.40
2022-11-19T12:32:17.674Z,13.60
2022-11-19T12:34:55.085Z,13.40
2022-11-19T12:37:27.787Z,13.70
2022-11-19T12:40:03.702Z,13.60
2022-11-19T12:42:51.598Z,13.50
2022-11-19T12:45:36.973Z,13.20
2022-11-19T12:48:21.804Z,13.20
2022-11-19T12:51:06.092Z,13.30
2022-11-19T12:53:39.169Z,13.40
2022-11-19T12:56:14.292Z,13.60
2022-11-19T12:58:52.154Z,13.80
2022-11-19T13:01:23.881Z,14.10
2022-11-19T13:04:15.368Z,14.50
2022-11-19T13:06:50.244Z,15.00
2022-11-19T13:09:20.144Z,14.80
2022-11-19T13:12:02.860Z,14.70
2022-11-19T13:14:41.531Z,14.60
2022-11-19T13:17:21.853Z,14.70
2022-11-19T13:19:54.947Z,14.90
2022-11-19T13:22:49.701Z,15.10
2022-11-19T13:25:28.874Z,15.30
2022-11-19T13:27:57.993Z,15.20
2022-11-19T13:30:26.939Z,15.20
2022-11-19T13:33:02.706Z,14.90
2022-11-19T13:35:37.659Z,14.90
2022-11-19T13:38:11.144Z,15.00
2022-11-19T13:41:02.042Z,15.00
2022-11-19T13:43:47.805Z,14.90
2022-11-19T13:46:46.746Z,14.90
2022-11-19T13:49:16.742Z,15.10
2022-11-19T13:51:49.770Z,15.40
2022-11-19T13:54:29.978Z,15.20
2022-11-19T13:56:57.942Z,15.30
2022-11-19T13:59:29.271Z,15.20
2022-11-19T14:02:11.137Z,15.30
2022-11-19T14:05:22.219Z,15.30
2022-11-19T14:08:04.243Z,15.30
2022-11-19T14:11:06.413Z,15.60
2022-11-19T14:13:40.970Z,15.80
2022-11-19T14:16:57.923Z,16.00
2022-11-19T14:19:43.271Z,15.70
2022-11-19T14:22:59.135Z,15.00
2022-11-19T14:26:03.506Z,13.90
2022-11-19T14:28:49.862Z,12.70
2022-11-19T14:31:20.747Z,11.90
2022-11-19T14:33:47.563Z,10.90
2022-11-19T14:36:19.882Z,10.30
2022-11-19T14:39:00.007Z,9.90
2022-11-19T14:41:34.982Z,9.40
2022-11-19T14:44:26.722Z,9.20
2022-11-19T14:46:53.620Z,8.90
2022-11-19T14:49:29.324Z,8.70
2022-11-19T14:51:57.531Z,8.40
2022-11-19T14:54:31.854Z,8.30
2022-11-19T14:57:16.419Z,8.10
2022-11-19T14:59:48.755Z,8.00
2022-11-19T15:02:26.709Z,7.60
2022-11-19T15:05:09.312Z,7.40
2022-11-19T15:07:55.828Z,7.10
2022-11-19T15:10:29.867Z,6.90
2022-11-19T15:13:26.223Z,6.60
2022-11-19T15:15:56.059Z,6.40
2022-11-19T15:18:35.156Z,6.30
2022-11-19T15:21:11.076Z,6.20
2022-11-19T15:23:59.537Z,6.10
2022-11-19T15:26:39.613Z,6.10
2022-11-19T15:29:12.413Z,6.10
2022-11-19T15:32:13.722Z,6.10
2022-11-19T15:35:14.598Z,5.90
2022-11-19T15:37:53.699Z,5.80
2022-11-19T15:40:26.041Z,5.80
2022-11-19T15:43:11.449Z,5.90
2022-11-19T15:45:46.002Z,5.90
2022-11-19T15:48:19.261Z,5.90
2022-11-19T15:50:47.025Z,5.80
2022-11-19T15:53:23.065Z,5.70
2022-11-19T15:55:52.825Z,5.70
2022-11-19T15:58:25.669Z,5.60
2022-11-19T16:00:54.414Z,5.50
2022-11-19T16:03:22.151Z,5.40
2022-11-19T16:06:10.669Z,5.40
2022-11-19T16:08:38.174Z,5.30
2022-11-19T16:11:24.041Z,5.30
2022-11-19T16:14:12.962Z,5.30
2022-11-19T16:16:58.975Z,5.30
2022-11-19T16:19:25.772Z,5.30
2022-11-19T16:22:03.552Z,5.30
2022-11-19T16:24:50.408Z,5.20
2022-11-19T16:27:23.614Z,5.10
2022-11-19T16:29:51.532Z,4.90
2022-11-19T16:32:20.873Z,4.90
2022-11-19T16:34:47.973Z,4.80
2022-11-19T16:37:17.203Z,4.80
2022-11-19T16:39:50.332Z,4.80
2022-11-19T16:42:26.473Z,4.90
2022-11-19T16:45:05.469Z,4.90
2022-11-19T16:47:40.136Z,4.80
2022-11-19T16:50:27.490Z,4.80
2022-11-19T16:52:55.631Z,4.60
2022-11-19T16:55:25.247Z,4.60
2022-11-19T16:57:59.898Z,4.60
2022-11-19T17:00:37.603Z,4.50
2022-11-19T17:03:25.949Z,4.40
2022-11-19T17:05:53.630Z,4.40
2022-11-19T17:08:29.329Z,4.30
2022-11-19T17:11:36.851Z,4.30
2022-11-19T17:14:12.773Z,4.40
2022-11-19T17:16:39.757Z,4.50
2022-11-19T17:19:36.192Z,4.50
2022-11-19T17:22:26.998Z,4.50
2022-11-19T17:24:53.957Z,4.40
2022-11-19T17:27:38.003Z,4.50
2022-11-19T17:30:20.825Z,4.50
2022-11-19T17:32:52.414Z,4.50
2022-11-19T17:35:38.532Z,4.60
2022-11-19T17:38:19.370Z,4.50
2022-11-19T17:40:49.416Z,4.30
2022-11-19T17:43:50.158Z,4.10
2022-11-19T17:46:17.192Z,3.90
2022-11-19T17:48:46.407Z,3.90
2022-11-19T17:51:15.901Z,3.80
2022-11-19T17:53:43.100Z,3.60
2022-11-19T17:56:21.197Z,3.70
2022-11-19T17:58:48.390Z,3.60
2022-11-19T18:01:16.371Z,3.50
2022-11-19T18:03:43.402Z,3.40
2022-11-19T18:06:15.409Z,3.20
2022-11-19T18:08:43.085Z,3.20
2022-11-19T18:11:24.571Z,3.10
2022-11-19T18:13:57.850Z,3.10
2022-11-19T18:16:27.272Z,3.10
2022-11-19T18:18:54.437Z,3.10
2022-11-19T18:21:22.980Z,3.10
2022-11-19T18:23:51.441Z,2.90
2022-11-19T18:26:20.392Z,2.60
2022-11-19T18:28:48.984Z,2.20
2022-11-19T18:31:27.617Z,1.80
2022-11-19T18:33:55.835Z,1.70
2022-11-19T18:36:23.985Z,1.70
2022-11-19T18:38:52.275Z,1.90
2022-11-19T18:41:19.144Z,1.90
2022-11-19T18:44:04.702Z,2.10
2022-11-19T18:46:31.968Z,2.40
2022-11-19T18:48:58.812Z,2.80
2022-11-19T18:51:28.707Z,3.00
2022-11-19T18:53:55.470Z,3.20
2022-11-19T18:56:22.347Z,3.30
2022-11-19T18:58:49.432Z,3.30
2022-11-19T19:01:17.208Z,3.40
2022-11-19T19:03:44.484Z,3.40
2022-11-19T19:06:12.065Z,3.40
2022-11-19T19:08:39.064Z,3.30
2022-11-19T19:11:26.934Z,2.90
2022-11-19T19:13:54.167Z,2.40
2022-11-19T19:16:21.971Z,1.80
2022-11-19T19:18:49.277Z,1.60
2022-11-19T19:21:18.877Z,1.90
2022-11-19T19:23:45.713Z,0.80
2022-11-19T19:26:14.204Z,0.50
2022-11-19T19:28:41.090Z,0.60
2022-11-19T19:31:08.371Z,1.10
2022-11-19T19:33:36.655Z,1.30
2022-11-19T19:36:05.068Z,1.20
2022-11-19T19:38:32.222Z,1.00
2022-11-19T19:41:13.899Z,0.90
2022-11-19T19:43:40.977Z,0.80
2022-11-19T19:46:13.134Z,0.60
2022-11-19T19:48:40.471Z,0.50
2022-11-19T19:51:07.319Z,0.50
2022-11-19T19:53:34.987Z,0.60
2022-11-19T19:56:06.346Z,0.60
2022-11-19T19:58:33.568Z,0.60
2022-11-19T20:01:08.281Z,0.30
2022-11-19T20:03:36.505Z,0.20
2022-11-19T20:06:04.711Z,0.60
2022-11-19T20:08:31.757Z,1.00
2022-11-19T20:11:03.438Z,1.70
2022-11-19T20:13:32.179Z,2.30
2022-11-19T20:16:11.914Z,2.90
2022-11-19T20:18:42.404Z,2.70
2022-11-19T20:21:15.054Z,2.40
2022-11-19T20:23:42.637Z,2.30
2022-11-19T20:26:16.346Z,2.30
2022-11-19T20:28:43.970Z,2.10
2022-11-19T20:31:17.431Z,1.80
2022-11-19T20:33:49.011Z,1.60
2022-11-19T20:36:16.127Z,2.10
2022-11-19T20:38:46.095Z,2.50
2022-11-19T20:41:35.056Z,2.80
2022-11-19T20:44:23.093Z,3.00
2022-11-19T20:46:58.415Z,2.90
2022-11-19T20:49:27.607Z,3.00
2022-11-19T20:51:55.353Z,3.10
2022-11-19T20:54:23.407Z,3.40
2022-11-19T20:56:51.559Z,3.40
2022-11-19T20:59:19.465Z,3.40
2022-11-19T21:01:50.018Z,3.50
2022-11-19T21:04:17.557Z,3.60
2022-11-19T21:06:44.710Z,3.70
2022-11-19T21:09:11.740Z,3.70
2022-11-19T21:11:38.669Z,3.70
2022-11-19T21:14:06.744Z,3.80
2022-11-19T21:16:33.779Z,3.90
2022-11-19T21:19:00.837Z,4.00
2022-11-19T21:21:28.153Z,3.90
2022-11-19T21:23:55.142Z,3.80
2022-11-19T21:26:24.934Z,3.70
2022-11-19T21:28:54.543Z,3.60
2022-11-19T21:31:22.513Z,3.50
2022-11-19T21:33:50.100Z,3.40
2022-11-19T21:36:17.092Z,3.40
2022-11-19T21:38:43.997Z,3.40
2022-11-19T21:41:10.850Z,3.50
2022-11-19T21:43:37.706Z,3.50
2022-11-19T21:46:07.816Z,3.70
2022-11-19T21:48:39.035Z,3.60
2022-11-19T21:51:07.735Z,3.50
2022-11-19T21:53:35.579Z,3.20
2022-11-19T21:56:02.988Z,3.20
2022-11-19T21:58:30.126Z,3.20
2022-11-19T22:01:01.421Z,3.20
2022-11-19T22:03:31.471Z,3.30
2022-11-19T22:06:05.949Z,3.30
2022-11-19T22:08:34.924Z,3.20
2022-11-19T22:11:22.074Z,3.20
2022-11-19T22:13:48.985Z,3.20
2022-11-19T22:16:15.984Z,3.20
2022-11-19T22:18:42.844Z,3.20
2022-11-19T22:21:10.466Z,3.30
2022-11-19T22:23:37.675Z,3.30
2022-11-19T22:26:06.322Z,3.30
2022-11-19T22:28:33.614Z,3.20
2022-11-19T22:31:00.775Z,3.10
2022-11-19T22:33:35.714Z,3.00
2022-11-19T22:36:09.561Z,2.90
2022-11-19T22:38:38.554Z,2.80
2022-11-19T22:41:10.470Z,2.70
2022-11-19T22:43:38.094Z,2.70
2022-11-19T22:46:06.405Z,2.60
2022-11-19T22:48:33.884Z,2.50
2022-11-19T22:51:09.889Z,2.70
2022-11-19T22:53:37.577Z,2.90
2022-11-19T22:56:06.726Z,3.20
2022-11-19T22:58:34.006Z,3.30
2022-11-19T23:01:01.626Z,3.30
2022-11-19T23:03:28.865Z,3.20
2022-11-19T23:05:56.289Z,3.00
2022-11-19T23:08:23.381Z,2.80
2022-11-19T23:11:00.405Z,2.90
2022-11-19T23:13:32.515Z,3.00
2022-11-19T23:16:13.054Z,3.40
2022-11-19T23:18:41.154Z,2.90
2022-11-19T23:21:11.012Z,2.70
2022-11-19T23:23:38.007Z,2.40
2022-11-19T23:26:06.169Z,2.20
2022-11-19T23:28:34.574Z,2.10
2022-11-19T23:31:10.141Z,2.20
2022-11-19T23:33:37.213Z,2.50
2022-11-19T23:36:19.616Z,2.80
2022-11-19T23:38:46.927Z,2.90
2022-11-19T23:41:15.594Z,2.90
2022-11-19T23:43:43.375Z,3.10
2022-11-19T23:46:11.711Z,3.30
2022-11-19T23:48:40.262Z,3.00
2022-11-19T23:51:10.460Z,3.10
2022-11-19T23:53:37.448Z,3.10
2022-11-19T23:56:05.329Z,3.10
2022-11-19T23:58:32.634Z,3.10
